createdAt,value
2023-02-02T02:54:43.496Z,19.55
2023-02-02T02:55:43.468Z,19.55
2023-02-02T02:56:43.431Z,19.53
2023-02-02T02:57:43.381Z,19.54
2023-02-02T02:58:43.355Z,19.55
2023-02-02T02:59:43.321Z,19.52
2023-02-02T03:00:43.256Z,19.53
2023-02-02T03:01:43.220Z,19.53
2023-02-02T03:02:43.205Z,19.52
2023-02-02T03:03:43.136Z,19.53
2023-02-02T03:04:43.123Z,19.53
2023-02-02T03:05:43.942Z,19.51
2023-02-02T03:06:43.066Z,19.51
2023-02-02T03:07:42.994Z,19.52
2023-02-02T03:08:42.935Z,19.51
2023-02-02T03:09:42.908Z,19.53
2023-02-02T03:10:42.852Z,19.52
2023-02-02T03:11:42.824Z,19.53
2023-02-02T03:12:42.786Z,19.51
2023-02-02T03:13:42.726Z,19.52
2023-02-02T03:14:42.696Z,19.53
2023-02-02T03:15:42.668Z,19.53
2023-02-02T03:16:42.606Z,19.51
2023-02-02T03:17:42.572Z,19.53
2023-02-02T03:18:42.518Z,19.52
2023-02-02T03:19:42.495Z,19.51
2023-02-02T03:20:42.441Z,19.50
2023-02-02T03:21:42.407Z,19.51
2023-02-02T03:22:42.377Z,19.51
2023-02-02T03:23:42.350Z,19.53
2023-02-02T03:24:42.311Z,19.51
2023-02-02T03:25:42.271Z,19.52
2023-02-02T03:26:42.404Z,19.52
2023-02-02T03:27:42.215Z,19.52
2023-02-02T03:28:42.146Z,19.51
2023-02-02T03:29:42.113Z,19.52
2023-02-02T03:30:42.108Z,19.52
2023-02-02T03:31:42.112Z,19.53
2023-02-02T03:32:41.998Z,19.52
2023-02-02T03:33:41.968Z,19.55
2023-02-02T03:34:41.968Z,19.53
2023-02-02T03:35:41.922Z,19.54
2023-02-02T03:36:41.929Z,19.54
2023-02-02T03:37:41.818Z,19.55
2023-02-02T03:39:41.767Z,19.54
2023-02-02T03:40:41.709Z,19.54
2023-02-02T03:41:41.691Z,19.54
2023-02-02T03:42:41.644Z,19.54
2023-02-02T03:43:41.652Z,19.54
2023-02-02T03:44:41.564Z,19.53
2023-02-02T03:45:41.587Z,19.55
2023-02-02T03:46:41.569Z,19.57
2023-02-02T03:47:41.473Z,19.56
2023-02-02T03:48:41.415Z,19.58
2023-02-02T03:49:41.392Z,19.56
2023-02-02T03:50:41.352Z,19.57
2023-02-02T03:51:41.316Z,19.56
2023-02-02T03:52:41.263Z,19.58
2023-02-02T03:53:41.278Z,19.56
2023-02-02T03:54:41.248Z,19.56
2023-02-02T03:55:41.168Z,19.56
2023-02-02T03:56:41.174Z,19.55
2023-02-02T03:57:41.105Z,19.59
2023-02-02T03:58:41.074Z,19.56
2023-02-02T03:59:41.035Z,19.58
2023-02-02T04:00:41.005Z,19.57
2023-02-02T04:01:41.064Z,19.59
2023-02-02T04:02:41.005Z,19.57
2023-02-02T04:03:40.892Z,19.60
2023-02-02T04:04:40.875Z,19.58
2023-02-02T04:05:40.871Z,19.59
2023-02-02T04:06:40.784Z,19.58
2023-02-02T04:07:40.748Z,19.57
2023-02-02T04:08:40.727Z,19.61
2023-02-02T04:09:40.744Z,19.58
2023-02-02T04:11:40.640Z,19.61
2023-02-02T04:12:40.584Z,19.62
2023-02-02T04:13:40.558Z,19.62
2023-02-02T04:14:40.524Z,19.61
2023-02-02T04:15:40.475Z,19.62
2023-02-02T04:16:40.434Z,19.61
2023-02-02T04:17:40.478Z,19.61
2023-02-02T04:18:40.372Z,19.61
2023-02-02T04:19:40.368Z,19.65
2023-02-02T04:20:40.360Z,19.61
2023-02-02T04:21:40.293Z,19.63
2023-02-02T04:22:40.272Z,19.64
2023-02-02T04:23:40.234Z,19.62
2023-02-02T04:24:40.209Z,19.63
2023-02-02T04:25:40.151Z,19.63
2023-02-02T04:26:40.268Z,19.63
2023-02-02T04:27:40.099Z,19.63
2023-02-02T06:56:35.535Z,19.90
2023-02-02T06:57:34.701Z,19.90
2023-02-02T06:58:34.733Z,19.90
2023-02-02T06:59:34.668Z,19.88
2023-02-02T07:00:34.627Z,19.87
2023-02-02T07:01:34.602Z,19.88
2023-02-02T07:02:34.583Z,19.89
2023-02-02T07:03:34.573Z,19.89
2023-02-02T07:04:34.499Z,19.88
2023-02-02T07:05:34.453Z,19.91
2023-02-02T07:06:34.403Z,19.91
2023-02-02T07:07:35.055Z,19.95
2023-02-02T07:08:34.329Z,19.94
2023-02-02T07:09:34.314Z,19.96
2023-02-02T07:11:14.638Z,20.00
2023-02-02T07:11:35.890Z,20.03
2023-02-02T07:12:34.268Z,20.04
2023-02-02T07:13:34.107Z,20.10
2023-02-02T07:14:34.149Z,20.13
2023-02-02T07:15:34.045Z,20.14
2023-02-02T07:16:34.019Z,20.19
2023-02-02T07:17:34.543Z,20.22
2023-02-02T07:18:34.034Z,20.23
2023-02-02T07:19:33.900Z,20.24
2023-02-02T07:20:34.591Z,20.27
2023-02-02T07:21:33.836Z,20.26
2023-02-02T07:22:33.824Z,20.29
2023-02-02T07:23:33.790Z,20.31
2023-02-02T07:24:33.749Z,20.36
2023-02-02T07:25:33.717Z,20.38
2023-02-02T07:26:33.941Z,20.42
2023-02-02T07:27:34.539Z,20.45
2023-02-02T07:28:33.585Z,20.44
2023-02-02T07:29:33.539Z,20.48
2023-02-02T07:30:33.569Z,20.51
2023-02-02T07:31:36.096Z,20.50
2023-02-02T07:32:33.482Z,20.55
2023-02-02T07:33:34.112Z,20.58
2023-02-02T07:34:33.426Z,20.63
2023-02-02T07:35:33.599Z,20.64
2023-02-02T07:36:33.345Z,20.67
2023-02-02T07:37:34.057Z,20.71
2023-02-02T07:38:33.244Z,20.76
2023-02-02T07:39:33.196Z,20.79
2023-02-02T07:40:33.156Z,20.81
2023-02-02T07:41:33.120Z,20.85
2023-02-02T07:42:33.132Z,20.87
2023-02-02T07:43:34.063Z,20.91
2023-02-02T07:44:33.622Z,20.93
2023-02-02T07:45:33.044Z,20.96
2023-02-02T07:46:33.576Z,20.98
2023-02-02T07:47:32.891Z,20.99
2023-02-02T07:48:33.098Z,21.02
2023-02-02T07:49:33.002Z,21.03
2023-02-02T07:50:34.667Z,21.04
2023-02-02T08:08:35.042Z,21.30
2023-02-02T09:39:34.088Z,21.80
2023-02-02T10:42:27.011Z,21.94
2023-02-02T10:43:31.332Z,21.86
2023-02-02T10:44:26.956Z,21.80
2023-02-02T10:45:26.897Z,21.76
2023-02-02T10:46:26.911Z,21.74
2023-02-02T10:47:26.829Z,21.74
2023-02-02T10:48:26.803Z,21.71
2023-02-02T10:49:26.818Z,21.71
2023-02-02T10:50:27.125Z,21.69
2023-02-02T10:51:26.770Z,21.67
2023-02-02T10:52:26.862Z,21.65
2023-02-02T10:53:26.674Z,21.63
2023-02-02T10:54:26.740Z,21.62
2023-02-02T10:55:29.177Z,21.61
2023-02-02T10:56:26.820Z,21.63
2023-02-02T10:57:27.622Z,21.59
2023-02-02T10:58:26.804Z,21.57
2023-02-02T10:59:27.834Z,21.57
2023-02-02T11:00:26.911Z,21.56
2023-02-02T11:01:26.585Z,21.56
2023-02-02T11:02:26.524Z,21.57
2023-02-02T11:03:26.522Z,21.53
2023-02-02T11:04:26.471Z,21.52
2023-02-02T11:05:26.412Z,21.53
2023-02-02T11:06:26.381Z,21.53
2023-02-02T11:07:26.349Z,21.52
2023-02-02T11:08:26.320Z,21.52
2023-02-02T11:09:26.298Z,21.52
2023-02-02T11:10:26.589Z,21.51
2023-02-02T11:11:26.291Z,21.49
2023-02-02T11:12:26.253Z,21.49
2023-02-02T11:13:26.183Z,21.49
2023-02-02T11:14:26.698Z,21.48
2023-02-02T11:15:26.133Z,21.48
2023-02-02T11:16:32.557Z,21.48
2023-02-02T11:17:26.991Z,21.48
2023-02-02T11:18:26.063Z,21.47
2023-02-02T11:19:26.021Z,21.48
2023-02-02T11:20:26.872Z,21.48
2023-02-02T11:21:25.885Z,21.47
2023-02-02T11:22:25.837Z,21.48
2023-02-02T11:23:25.769Z,21.46
2023-02-02T11:24:26.737Z,21.47
2023-02-02T11:25:25.706Z,21.47
2023-02-02T11:26:25.720Z,21.48
2023-02-02T11:27:25.656Z,21.48
2023-02-02T11:28:25.629Z,21.46
2023-02-02T11:29:25.570Z,21.44
2023-02-02T11:30:25.935Z,21.45
2023-02-02T11:31:26.188Z,21.45
2023-02-02T11:32:25.470Z,21.44
2023-02-02T11:33:25.444Z,21.43
2023-02-02T11:34:25.407Z,21.44
2023-02-02T11:35:25.344Z,21.44
2023-02-02T11:36:25.310Z,21.45
2023-02-02T11:37:25.275Z,21.44
2023-02-02T11:38:25.680Z,21.44
2023-02-02T11:39:25.213Z,21.44
2023-02-02T11:40:25.533Z,21.42
2023-02-02T11:41:25.120Z,21.44
2023-02-02T11:42:25.189Z,21.43
2023-02-02T11:43:25.656Z,21.41
2023-02-02T11:44:25.009Z,21.41
2023-02-02T11:45:24.985Z,21.40
2023-02-02T11:46:25.050Z,21.42
2023-02-02T11:47:24.914Z,21.41
2023-02-02T11:48:24.876Z,21.43
2023-02-02T11:49:24.820Z,21.42
2023-02-02T11:50:25.094Z,21.42
2023-02-02T11:51:24.798Z,21.44
2023-02-02T11:52:24.723Z,21.42
2023-02-02T11:53:24.663Z,21.43
2023-02-02T11:54:24.671Z,21.41
2023-02-02T11:55:24.614Z,21.42
2023-02-02T11:56:24.562Z,21.43
2023-02-02T11:57:24.578Z,21.43
2023-02-02T11:58:24.601Z,21.45
2023-02-02T11:59:24.421Z,21.43
2023-02-02T12:00:24.742Z,21.45
2023-02-02T12:01:24.340Z,21.45
2023-02-02T12:02:24.366Z,21.43
2023-02-02T12:03:24.370Z,21.44
2023-02-02T12:04:24.262Z,21.44
2023-02-02T12:05:24.192Z,21.43
2023-02-02T12:06:24.154Z,21.44
2023-02-02T12:07:24.107Z,21.43
2023-02-02T12:08:24.169Z,21.44
2023-02-02T12:09:24.031Z,21.42
2023-02-02T12:10:24.312Z,21.43
2023-02-02T12:11:23.943Z,21.42
2023-02-02T12:12:23.884Z,21.42
2023-02-02T12:13:23.850Z,21.41
2023-02-02T12:14:23.863Z,21.44
2023-02-02T12:15:23.778Z,21.41
2023-02-02T12:16:24.718Z,21.40
2023-02-02T12:17:23.729Z,21.40
2023-02-02T12:18:24.714Z,21.40
2023-02-02T12:19:23.748Z,21.38
2023-02-02T12:20:23.832Z,21.35
2023-02-02T12:21:23.542Z,21.35
2023-02-02T12:22:28.159Z,21.34
2023-02-02T12:23:23.466Z,21.33
2023-02-02T12:24:23.416Z,21.30
2023-02-02T12:25:23.794Z,21.26
2023-02-02T12:26:23.376Z,21.25
2023-02-02T12:27:23.298Z,21.23
2023-02-02T12:28:23.800Z,21.65
2023-02-02T12:29:23.235Z,21.46
2023-02-02T12:30:23.609Z,21.40
2023-02-02T12:31:23.126Z,21.38
2023-02-02T12:32:23.049Z,21.37
2023-02-02T12:33:23.033Z,21.35
2023-02-02T12:34:23.009Z,21.33
2023-02-02T12:35:22.910Z,21.34
2023-02-02T12:36:22.911Z,21.33
2023-02-02T12:37:22.874Z,21.30
2023-02-02T13:40:23.220Z,21.39
2023-02-02T13:58:19.615Z,21.41
2023-02-02T14:07:19.194Z,21.41
2023-02-02T14:19:26.704Z,21.40
2023-02-02T15:50:15.223Z,21.55
2023-02-02T16:09:14.584Z,21.59
2023-02-02T16:18:14.252Z,21.59
2023-02-02T16:37:13.518Z,21.61
2023-02-02T16:40:13.406Z,21.60
2023-02-02T16:41:13.367Z,21.60
2023-02-02T16:42:13.319Z,21.62
2023-02-02T16:43:13.254Z,21.60
2023-02-02T16:44:13.221Z,21.61
2023-02-02T16:45:13.219Z,21.61
2023-02-02T16:46:13.253Z,21.61
2023-02-02T16:47:13.152Z,21.61
2023-02-02T16:48:13.085Z,21.59
2023-02-02T16:49:13.065Z,21.62
2023-02-02T16:50:13.020Z,21.62
2023-02-02T16:51:12.966Z,21.62
2023-02-02T16:52:12.927Z,21.63
2023-02-02T16:53:12.947Z,21.62
2023-02-02T16:54:12.899Z,21.62
2023-02-02T16:55:12.821Z,21.61
2023-02-02T16:56:12.792Z,21.62
2023-02-02T16:57:12.762Z,21.62
2023-02-02T16:58:12.737Z,21.62
2023-02-02T16:59:12.726Z,21.63
2023-02-02T17:00:12.656Z,21.63
2023-02-02T17:01:15.895Z,21.65
2023-02-02T17:02:12.590Z,21.63
2023-02-02T17:03:12.525Z,21.61
2023-02-02T17:04:12.501Z,21.64
2023-02-02T17:05:12.465Z,21.63
2023-02-02T17:06:12.480Z,21.63
2023-02-02T17:07:12.415Z,21.63
2023-02-02T17:08:12.366Z,21.64
2023-02-02T17:09:12.305Z,21.62
2023-02-02T17:10:12.300Z,21.64
2023-02-02T17:11:12.231Z,21.64
2023-02-02T17:12:22.557Z,21.63
2023-02-02T17:14:12.137Z,21.66
2023-02-02T17:15:12.086Z,21.65
2023-02-02T17:16:12.105Z,21.65
2023-02-02T17:17:12.003Z,21.65
2023-02-02T17:18:11.973Z,21.66
2023-02-02T17:19:11.937Z,21.65
2023-02-02T17:20:11.876Z,21.67
2023-02-02T17:21:11.859Z,21.66
2023-02-02T17:22:11.814Z,21.65
2023-02-02T17:23:11.780Z,21.67
2023-02-02T17:24:11.741Z,21.66
2023-02-02T17:25:11.713Z,21.67
2023-02-02T17:26:11.652Z,21.67
2023-02-02T17:27:11.614Z,21.66
2023-02-02T17:28:11.619Z,21.64
2023-02-02T17:29:11.549Z,21.66
2023-02-02T17:30:11.506Z,21.67
2023-02-02T17:31:11.661Z,21.65
2023-02-02T17:32:12.271Z,21.65
2023-02-02T17:33:11.567Z,21.64
2023-02-02T17:34:11.495Z,21.66
2023-02-02T17:35:11.505Z,21.66
2023-02-02T17:36:11.460Z,21.66
2023-02-02T17:37:11.256Z,21.67
2023-02-02T17:38:11.223Z,21.64
2023-02-02T17:39:11.943Z,21.67
2023-02-02T17:40:13.785Z,21.67
2023-02-02T17:41:11.545Z,21.66
2023-02-02T17:42:11.318Z,21.67
2023-02-02T17:43:11.789Z,21.67
2023-02-02T17:44:11.231Z,21.71
2023-02-02T17:45:11.207Z,21.69
2023-02-02T17:46:11.210Z,21.68
2023-02-02T17:47:11.132Z,21.70
2023-02-02T17:48:11.070Z,21.69
2023-02-02T17:49:11.047Z,21.73
2023-02-02T17:50:11.000Z,21.73
2023-02-02T17:51:11.001Z,21.72
2023-02-02T17:52:10.940Z,21.73
2023-02-02T17:53:10.871Z,21.73
2023-02-02T17:54:10.838Z,21.71
2023-02-02T18:06:11.269Z,21.76
2023-02-02T20:23:05.481Z,21.84
2023-02-02T20:24:05.453Z,21.85
2023-02-02T20:25:05.474Z,21.86
2023-02-02T20:26:05.378Z,21.84
2023-02-02T20:27:05.351Z,21.84
2023-02-02T22:24:01.315Z,21.87
2023-02-02T22:25:01.293Z,21.86
2023-02-02T22:26:01.261Z,21.85
2023-02-02T22:27:01.213Z,21.86
2023-02-02T22:28:01.176Z,21.88
2023-02-02T22:29:01.130Z,21.88
2023-02-02T22:30:01.091Z,21.89
2023-02-02T22:31:01.229Z,21.88
2023-02-02T22:32:01.031Z,21.88
2023-02-02T22:33:01.000Z,21.90
2023-02-02T22:34:00.983Z,21.89
2023-02-02T22:35:00.968Z,21.89
2023-02-02T22:36:00.856Z,21.91
2023-02-02T22:46:00.939Z,21.94
2023-02-02T22:48:01.404Z,21.95
